Time;durP1;ratioP1;P1;durP2;ratioP2;P2;SDS_P1;SDS_P2;PMS_P1;PMS_P2;Temp;Humidity;BMP_temperature;BMP_pressure;BME280_temperature;BME280_humidity;BME280_pressure;Samples;Min_cycle;Max_cycle;Signal;HPM_P1;HPM_P2
2023/07/21 00:00:00;;;;;;;;;0.67;0.67;;;;;;;;5068955;28;8804;-72
2023/07/21 00:02:26;;;;;;;;;1.00;1.00;;;;;;;;5068481;28;9614;-72
2023/07/21 00:04:51;;;;;;;;;1.00;1.00;;;;;;;;5069459;28;8858;-72
2023/07/21 00:07:16;;;;;;;;;1.25;1.00;;;;;;;;5070291;28;8792;-72
2023/07/21 00:09:42;;;;;;;;;0.00;0.00;;;;;;;;5068259;28;9532;-73
2023/07/21 00:12:08;;;;;;;;;0.33;0.33;;;;;;;;5070055;28;8789;-72
2023/07/21 00:14:33;;;;;;;;;3.00;1.50;;;;;;;;5068294;28;8801;-72
2023/07/21 00:16:58;;;;;;;;;1.25;1.25;;;;;;;;5068518;28;11506;-72
2023/07/21 00:19:24;;;;;;;;;0.75;0.75;;;;;;;;5069705;28;8796;-73
2023/07/21 00:21:49;;;;;;;;;1.00;1.00;;;;;;;;5069890;28;8893;-72
2023/07/21 00:24:15;;;;;;;;;2.00;1.00;;;;;;;;5070170;28;8906;-73
2023/07/21 00:26:40;;;;;;;;;2.25;0.75;;;;;;;;5069666;28;8840;-72
2023/07/21 00:29:06;;;;;;;;;1.00;1.00;;;;;;;;5069356;28;8820;-72
2023/07/21 00:31:31;;;;;;;;;0.75;0.75;;;;;;;;5068079;28;8957;-73
2023/07/21 00:33:57;;;;;;;;;1.00;1.00;;;;;;;;5069847;28;8800;-74
2023/07/21 00:36:23;;;;;;;;;1.25;1.25;;;;;;;;5069660;28;9571;-74
2023/07/21 00:38:48;;;;;;;;;2.00;1.00;;;;;;;;5068261;28;11084;-73
2023/07/21 00:41:15;;;;;;;;;1.00;1.00;;;;;;;;5069721;28;8788;-72
2023/07/21 00:43:40;;;;;;;;;1.25;1.25;;;;;;;;5070666;28;8847;-72
2023/07/21 00:46:06;;;;;;;;;0.75;0.75;;;;;;;;5072681;28;9719;-74
2023/07/21 00:48:31;;;;;;;;;0.00;0.00;;;;;;;;5072896;28;8828;-72
2023/07/21 00:50:57;;;;;;;;;0.00;0.00;;;;;;;;5072718;28;8828;-73
2023/07/21 00:53:22;;;;;;;;;0.00;0.00;;;;;;;;5072717;28;8817;-74
2023/07/21 00:55:48;;;;;;;;;1.00;1.00;;;;;;;;5073590;28;8820;-72
2023/07/21 00:58:14;;;;;;;;;1.00;1.00;;;;;;;;5073906;28;8815;-72
2023/07/21 01:00:40;;;;;;;;;1.00;1.00;;;;;;;;5073526;28;8847;-72
2023/07/21 01:03:06;;;;;;;;;1.25;1.00;;;;;;;;5073732;28;9658;-72
2023/07/21 01:05:33;;;;;;;;;0.00;0.00;;;;;;;;5073627;28;8788;-73
2023/07/21 01:07:59;;;;;;;;;1.00;1.00;;;;;;;;5072608;28;9644;-72
2023/07/21 01:10:25;;;;;;;;;1.00;1.00;;;;;;;;5074109;28;9529;-73
2023/07/21 01:12:50;;;;;;;;;2.00;0.00;;;;;;;;5072272;28;9732;-73
2023/07/21 01:15:16;;;;;;;;;0.50;0.00;;;;;;;;5073555;28;8843;-72
2023/07/21 01:17:42;;;;;;;;;1.00;1.00;;;;;;;;5073806;28;8885;-73
2023/07/21 01:20:09;;;;;;;;;0.50;0.50;;;;;;;;5073766;28;8796;-73
2023/07/21 01:23:00;;;;;;;;;1.00;1.00;;;;;;;;5073637;28;8887;-73
2023/07/21 01:25:28;;;;;;;;;0.00;0.00;;;;;;;;5070376;28;10372;-72
2023/07/21 01:27:54;;;;;;;;;0.00;0.00;;;;;;;;5073162;28;9610;-72
2023/07/21 01:30:20;;;;;;;;;0.00;0.00;;;;;;;;5073674;28;9546;-72
2023/07/21 01:32:46;;;;;;;;;0.00;0.00;;;;;;;;5073500;28;9678;-72
2023/07/21 01:35:15;;;;;;;;;0.00;0.00;;;;;;;;5074003;28;8812;-72
2023/07/21 01:37:41;;;;;;;;;1.00;1.00;;;;;;;;5073574;28;9452;-72
2023/07/21 01:40:07;;;;;;;;;0.00;0.00;;;;;;;;5073639;28;9812;-72
2023/07/21 01:42:33;;;;;;;;;4.00;0.25;;;;;;;;5071904;28;8897;-72
2023/07/21 01:45:02;;;;;;;;;0.75;0.75;;;;;;;;5073541;28;9704;-72
2023/07/21 01:47:30;;;;;;;;;0.00;0.00;;;;;;;;5073576;28;9663;-73
2023/07/21 01:49:56;;;;;;;;;0.00;0.00;;;;;;;;5072411;28;9628;-73
2023/07/21 01:52:22;;;;;;;;;0.00;0.00;;;;;;;;5073603;28;9710;-73
2023/07/21 01:54:51;;;;;;;;;0.00;0.00;;;;;;;;5073021;28;8804;-73
2023/07/21 01:57:33;;;;;;;;;0.75;0.75;;;;;;;;5073154;28;9637;-74
2023/07/21 02:00:02;;;;;;;;;1.25;1.25;;;;;;;;5071983;28;9504;-74
2023/07/21 02:02:28;;;;;;;;;1.00;1.00;;;;;;;;5073069;28;9712;-73
2023/07/21 02:04:53;;;;;;;;;1.00;1.00;;;;;;;;5072701;28;10414;-73
2023/07/21 02:07:20;;;;;;;;;2.00;1.00;;;;;;;;5071718;28;8923;-74
2023/07/21 02:09:46;;;;;;;;;1.00;1.00;;;;;;;;5073079;28;8795;-73
2023/07/21 02:12:12;;;;;;;;;1.00;1.00;;;;;;;;5072545;28;9542;-74
2023/07/21 02:14:37;;;;;;;;;1.00;1.00;;;;;;;;5072430;28;9646;-73
2023/07/21 02:17:02;;;;;;;;;1.25;1.25;;;;;;;;5071430;28;8796;-74
2023/07/21 02:19:27;;;;;;;;;2.67;2.00;;;;;;;;5072594;28;9556;-73
2023/07/21 02:21:53;;;;;;;;;2.00;2.00;;;;;;;;5072519;28;9478;-73
2023/07/21 02:24:18;;;;;;;;;1.25;1.25;;;;;;;;5072753;28;8907;-73
2023/07/21 02:26:43;;;;;;;;;1.75;1.50;;;;;;;;5072123;28;9572;-73
2023/07/21 02:29:10;;;;;;;;;2.00;2.00;;;;;;;;5072568;28;8820;-73
2023/07/21 02:31:35;;;;;;;;;1.00;1.00;;;;;;;;5072244;28;8788;-74
2023/07/21 02:34:00;;;;;;;;;1.00;1.00;;;;;;;;5072460;28;9669;-73
2023/07/21 02:36:26;;;;;;;;;1.00;1.00;;;;;;;;5071996;28;8870;-74
2023/07/21 02:38:51;;;;;;;;;2.75;1.00;;;;;;;;5072375;28;8800;-74
2023/07/21 02:41:16;;;;;;;;;2.00;2.00;;;;;;;;5070555;28;8820;-73
2023/07/21 02:43:41;;;;;;;;;1.00;1.00;;;;;;;;5072384;28;8804;-74
2023/07/21 02:46:06;;;;;;;;;2.00;2.00;;;;;;;;5072282;28;8816;-73
2023/07/21 02:48:33;;;;;;;;;0.75;0.75;;;;;;;;5072270;28;9569;-74
2023/07/21 02:51:00;;;;;;;;;2.75;1.75;;;;;;;;5071914;28;9568;-74
2023/07/21 02:53:25;;;;;;;;;1.00;1.00;;;;;;;;5071967;28;9565;-74
2023/07/21 02:55:51;;;;;;;;;1.00;1.00;;;;;;;;5070139;28;9801;-74
2023/07/21 02:58:17;;;;;;;;;2.75;2.00;;;;;;;;5071966;28;8811;-74
2023/07/21 03:00:43;;;;;;;;;1.50;1.50;;;;;;;;5070412;28;8808;-73
2023/07/21 03:03:12;;;;;;;;;1.25;1.25;;;;;;;;5071473;28;9831;-74
2023/07/21 03:05:37;;;;;;;;;2.25;1.25;;;;;;;;5069945;28;8891;-74
2023/07/21 03:08:03;;;;;;;;;2.25;1.75;;;;;;;;5071619;28;9743;-74
2023/07/21 03:10:29;;;;;;;;;1.75;1.75;;;;;;;;5071693;28;8796;-73
2023/07/21 03:12:54;;;;;;;;;3.00;1.50;;;;;;;;5071657;28;9567;-74
2023/07/21 03:15:19;;;;;;;;;0.00;0.00;;;;;;;;5071699;28;8816;-73
2023/07/21 03:17:45;;;;;;;;;1.25;1.25;;;;;;;;5071950;28;8819;-73
2023/07/21 03:20:12;;;;;;;;;1.75;1.25;;;;;;;;5071682;28;8823;-72
2023/07/21 03:22:44;;;;;;;;;2.00;1.75;;;;;;;;5071930;28;8784;-73
2023/07/21 03:25:10;;;;;;;;;2.00;2.00;;;;;;;;5070001;28;9757;-72
2023/07/21 03:27:35;;;;;;;;;2.50;2.50;;;;;;;;5071460;28;10600;-73
2023/07/21 03:30:02;;;;;;;;;2.00;2.00;;;;;;;;5071778;28;9723;-72
2023/07/21 03:32:27;;;;;;;;;2.00;2.00;;;;;;;;5070167;28;8804;-73
2023/07/21 03:34:55;;;;;;;;;2.00;1.75;;;;;;;;5071648;28;9685;-72
2023/07/21 03:37:24;;;;;;;;;3.25;2.00;;;;;;;;5071490;28;8785;-72
2023/07/21 03:39:49;;;;;;;;;2.25;2.25;;;;;;;;5071491;28;9642;-73
2023/07/21 03:42:14;;;;;;;;;2.75;2.75;;;;;;;;5070208;28;9564;-72
2023/07/21 03:44:40;;;;;;;;;1.75;1.75;;;;;;;;5071475;28;8820;-73
2023/07/21 03:47:05;;;;;;;;;3.00;3.00;;;;;;;;5071858;28;8793;-72
2023/07/21 03:49:30;;;;;;;;;3.50;2.75;;;;;;;;5070230;28;8808;-72
2023/07/21 03:51:55;;;;;;;;;3.25;2.50;;;;;;;;5071043;28;8878;-72
2023/07/21 03:54:22;;;;;;;;;1.75;1.75;;;;;;;;5070859;28;8828;-73
2023/07/21 03:56:47;;;;;;;;;3.25;2.75;;;;;;;;5071288;28;8777;-73
2023/07/21 03:59:12;;;;;;;;;2.00;2.00;;;;;;;;5071358;28;9638;-73
2023/07/21 04:01:37;;;;;;;;;2.75;2.75;;;;;;;;5071141;28;8792;-73
2023/07/21 04:04:03;;;;;;;;;2.00;2.00;;;;;;;;5070739;28;8808;-73
2023/07/21 04:06:28;;;;;;;;;3.00;2.00;;;;;;;;5071437;28;9121;-73
2023/07/21 04:08:56;;;;;;;;;1.75;1.75;;;;;;;;5069767;28;8836;-73
2023/07/21 04:11:21;;;;;;;;;3.00;2.00;;;;;;;;5072279;28;8755;-73
2023/07/21 04:13:46;;;;;;;;;2.00;1.00;;;;;;;;5070918;28;9718;-73
2023/07/21 04:16:12;;;;;;;;;1.75;1.75;;;;;;;;5070818;28;8836;-73
2023/07/21 04:18:38;;;;;;;;;2.00;2.00;;;;;;;;5069765;28;8801;-73
2023/07/21 04:21:03;;;;;;;;;2.50;1.50;;;;;;;;5070874;28;8911;-73
2023/07/21 04:23:28;;;;;;;;;1.33;1.00;;;;;;;;5070676;28;9727;-73
2023/07/21 04:25:54;;;;;;;;;1.00;1.00;;;;;;;;5070931;28;9482;-73
2023/07/21 04:28:19;;;;;;;;;0.75;0.75;;;;;;;;5070889;28;8801;-73
2023/07/21 04:30:44;;;;;;;;;2.25;1.00;;;;;;;;5070704;28;8793;-73
2023/07/21 04:33:09;;;;;;;;;1.50;1.50;;;;;;;;5070630;28;8823;-73
2023/07/21 04:35:35;;;;;;;;;1.50;1.50;;;;;;;;5069435;28;8844;-72
2023/07/21 04:38:01;;;;;;;;;1.25;1.25;;;;;;;;5070409;28;8788;-73
2023/07/21 04:40:26;;;;;;;;;1.00;1.00;;;;;;;;5070716;28;9580;-73
2023/07/21 04:42:52;;;;;;;;;0.50;0.50;;;;;;;;5070623;28;8792;-73
2023/07/21 04:45:17;;;;;;;;;0.00;0.00;;;;;;;;5070521;28;9905;-73
2023/07/21 04:47:42;;;;;;;;;1.00;1.00;;;;;;;;5070229;28;8796;-73
2023/07/21 04:50:08;;;;;;;;;1.75;1.00;;;;;;;;5070509;28;8873;-74
2023/07/21 04:52:36;;;;;;;;;1.50;1.50;;;;;;;;5070014;28;9642;-74
2023/07/21 04:55:01;;;;;;;;;2.75;1.00;;;;;;;;5070626;28;8878;-74
2023/07/21 04:57:26;;;;;;;;;2.00;2.00;;;;;;;;5070158;28;9567;-73
2023/07/21 04:59:51;;;;;;;;;1.25;1.00;;;;;;;;5069038;28;8800;-74
2023/07/21 05:02:16;;;;;;;;;2.25;2.25;;;;;;;;5068951;28;8824;-74
2023/07/21 05:04:42;;;;;;;;;1.25;1.25;;;;;;;;5070295;28;8792;-73
2023/07/21 05:07:08;;;;;;;;;1.25;1.25;;;;;;;;5070212;28;8918;-74
2023/07/21 05:09:33;;;;;;;;;2.75;2.75;;;;;;;;5052478;28;8946;-73
2023/07/21 05:11:59;;;;;;;;;2.50;1.25;;;;;;;;5070182;28;9846;-74
2023/07/21 05:14:24;;;;;;;;;2.00;1.00;;;;;;;;5070019;28;8969;-74
2023/07/21 05:16:49;;;;;;;;;2.50;2.50;;;;;;;;5070293;28;8819;-74
2023/07/21 05:19:15;;;;;;;;;2.50;2.50;;;;;;;;5069866;28;9556;-74
2023/07/21 05:21:40;;;;;;;;;2.75;1.75;;;;;;;;5068745;28;8797;-73
2023/07/21 05:24:05;;;;;;;;;2.25;2.25;;;;;;;;5070114;28;8792;-73
2023/07/21 05:26:35;;;;;;;;;3.75;2.00;;;;;;;;5068879;28;8946;-73
2023/07/21 05:29:01;;;;;;;;;2.50;2.25;;;;;;;;5070435;28;8787;-73
2023/07/21 05:31:26;;;;;;;;;1.75;1.25;;;;;;;;5073107;28;9650;-75
2023/07/21 05:33:51;;;;;;;;;1.00;1.00;;;;;;;;5073466;28;8814;-73
2023/07/21 05:36:16;;;;;;;;;1.00;1.00;;;;;;;;5073111;28;8808;-74
2023/07/21 05:38:41;;;;;;;;;1.25;1.25;;;;;;;;5073319;28;8808;-73
2023/07/21 05:41:07;;;;;;;;;0.25;0.25;;;;;;;;5073362;28;8827;-73
2023/07/21 05:43:32;;;;;;;;;1.75;0.75;;;;;;;;5073064;28;8824;-73
2023/07/21 05:45:58;;;;;;;;;1.00;1.00;;;;;;;;5073458;28;8834;-74
2023/07/21 05:48:26;;;;;;;;;2.00;1.25;;;;;;;;5073017;28;9649;-74
2023/07/21 05:50:52;;;;;;;;;2.00;2.00;;;;;;;;5073106;28;8830;-73
2023/07/21 05:53:17;;;;;;;;;2.75;2.75;;;;;;;;5072869;28;9718;-73
2023/07/21 05:55:42;;;;;;;;;2.50;2.00;;;;;;;;5073062;28;8820;-73
2023/07/21 05:58:08;;;;;;;;;3.00;2.00;;;;;;;;5073190;28;8788;-73
2023/07/21 06:00:36;;;;;;;;;1.00;1.00;;;;;;;;5073288;28;8869;-73
2023/07/21 06:03:05;;;;;;;;;1.75;1.75;;;;;;;;5072422;28;8874;-74
2023/07/21 06:05:31;;;;;;;;;2.00;2.00;;;;;;;;5072714;28;9554;-73
2023/07/21 06:07:56;;;;;;;;;1.50;1.50;;;;;;;;5072696;28;9595;-73
2023/07/21 06:10:21;;;;;;;;;1.00;1.00;;;;;;;;5072908;28;8920;-74
2023/07/21 06:12:48;;;;;;;;;2.00;2.00;;;;;;;;5071491;28;8815;-73
2023/07/21 06:15:13;;;;;;;;;2.25;2.25;;;;;;;;5071340;28;8836;-73
2023/07/21 06:17:39;;;;;;;;;3.75;3.00;;;;;;;;5072525;28;9590;-73
2023/07/21 06:20:05;;;;;;;;;4.25;1.75;;;;;;;;5072774;28;8757;-73
2023/07/21 06:22:31;;;;;;;;;2.00;2.00;;;;;;;;5072437;28;10379;-74
2023/07/21 06:24:56;;;;;;;;;2.75;2.75;;;;;;;;5072621;28;9854;-74
2023/07/21 06:27:21;;;;;;;;;3.00;2.50;;;;;;;;5072532;28;9093;-73
2023/07/21 06:29:46;;;;;;;;;4.25;4.00;;;;;;;;5072726;28;8887;-74
2023/07/21 06:32:11;;;;;;;;;5.00;4.00;;;;;;;;5072260;28;8808;-73
2023/07/21 06:34:37;;;;;;;;;2.75;2.75;;;;;;;;5072464;28;8800;-73
2023/07/21 06:37:02;;;;;;;;;3.00;3.00;;;;;;;;5072841;28;8814;-74
2023/07/21 06:39:27;;;;;;;;;4.50;3.25;;;;;;;;5072629;28;8804;-73
2023/07/21 06:41:53;;;;;;;;;3.25;3.25;;;;;;;;5071440;28;8811;-73
2023/07/21 06:44:20;;;;;;;;;2.00;2.00;;;;;;;;5072556;28;8784;-73
2023/07/21 06:46:47;;;;;;;;;3.75;3.75;;;;;;;;5072706;28;8796;-73
2023/07/21 06:49:14;;;;;;;;;4.75;4.75;;;;;;;;5073142;28;9783;-73
2023/07/21 06:51:39;;;;;;;;;3.00;3.00;;;;;;;;5072386;28;9772;-73
2023/07/21 06:54:08;;;;;;;;;3.00;3.00;;;;;;;;5072728;28;9644;-73
2023/07/21 06:56:33;;;;;;;;;7.50;4.50;;;;;;;;5072384;28;8843;-73
2023/07/21 06:58:58;;;;;;;;;6.50;6.00;;;;;;;;5070637;28;9747;-73
2023/07/21 07:01:23;;;;;;;;;4.00;4.00;;;;;;;;5071830;28;8807;-73
2023/07/21 07:03:48;;;;;;;;;8.50;8.00;;;;;;;;5071999;28;8840;-73
2023/07/21 07:06:14;;;;;;;;;5.00;4.50;;;;;;;;5070724;28;8874;-72
2023/07/21 07:08:39;;;;;;;;;6.50;4.00;;;;;;;;5071855;28;8926;-73
2023/07/21 07:11:04;;;;;;;;;6.00;5.75;;;;;;;;5072030;28;9526;-73
2023/07/21 07:13:29;;;;;;;;;5.00;4.25;;;;;;;;5071887;28;8831;-73
2023/07/21 07:15:55;;;;;;;;;7.00;6.00;;;;;;;;5071269;28;8843;-73
2023/07/21 07:18:21;;;;;;;;;5.75;5.75;;;;;;;;5070595;28;8816;-73
2023/07/21 07:20:50;;;;;;;;;6.00;6.00;;;;;;;;5071392;28;8815;-73
2023/07/21 07:23:16;;;;;;;;;5.25;5.25;;;;;;;;5071736;28;8970;-73
2023/07/21 07:25:44;;;;;;;;;7.00;5.25;;;;;;;;5071528;28;9835;-73
2023/07/21 07:28:10;;;;;;;;;6.25;3.00;;;;;;;;5071404;28;10543;-73
2023/07/21 07:30:35;;;;;;;;;3.25;2.50;;;;;;;;5071544;28;9591;-74
2023/07/21 07:33:00;;;;;;;;;5.50;5.50;;;;;;;;5070187;28;8805;-73
2023/07/21 07:35:26;;;;;;;;;4.50;3.50;;;;;;;;5069936;28;8839;-73
2023/07/21 07:37:51;;;;;;;;;5.25;4.25;;;;;;;;5071559;28;8800;-73
2023/07/21 07:40:18;;;;;;;;;2.75;1.75;;;;;;;;5071051;28;11481;-72
2023/07/21 07:42:43;;;;;;;;;5.25;4.50;;;;;;;;5071413;28;8998;-72
2023/07/21 07:45:09;;;;;;;;;7.50;4.50;;;;;;;;5071618;28;10100;-73
2023/07/21 07:47:34;;;;;;;;;3.75;3.75;;;;;;;;5071167;28;9753;-73
2023/07/21 07:50:00;;;;;;;;;9.00;6.75;;;;;;;;5071198;28;8800;-73
2023/07/21 07:52:25;;;;;;;;;8.00;8.00;;;;;;;;5069273;28;8843;-73
2023/07/21 07:54:50;;;;;;;;;7.00;7.00;;;;;;;;5070876;28;8812;-73
2023/07/21 07:57:16;;;;;;;;;7.75;7.75;;;;;;;;5071080;28;8983;-73
2023/07/21 07:59:41;;;;;;;;;5.75;5.75;;;;;;;;5070781;28;8776;-73
2023/07/21 08:02:06;;;;;;;;;7.25;7.00;;;;;;;;5070744;28;8812;-73
2023/07/21 08:04:31;;;;;;;;;4.25;4.25;;;;;;;;5070842;28;8831;-73
2023/07/21 08:06:57;;;;;;;;;10.50;9.25;;;;;;;;5070903;28;8808;-73
2023/07/21 08:09:22;;;;;;;;;8.75;8.75;;;;;;;;5070670;28;8808;-73
2023/07/21 08:11:47;;;;;;;;;7.25;6.75;;;;;;;;5070847;28;9000;-73
2023/07/21 08:14:12;;;;;;;;;8.50;7.00;;;;;;;;5070624;28;8801;-72
2023/07/21 08:16:38;;;;;;;;;8.00;7.25;;;;;;;;5070695;28;8841;-73
2023/07/21 08:19:03;;;;;;;;;9.75;7.25;;;;;;;;5071061;28;8966;-74
2023/07/21 08:21:29;;;;;;;;;5.75;5.75;;;;;;;;5069076;28;9602;-73
2023/07/21 08:23:54;;;;;;;;;5.00;4.00;;;;;;;;5069573;28;8804;-73
2023/07/21 08:26:20;;;;;;;;;6.00;5.00;;;;;;;;5069347;28;8834;-73
2023/07/21 08:28:46;;;;;;;;;3.75;3.75;;;;;;;;5070975;28;8805;-73
2023/07/21 08:31:11;;;;;;;;;6.25;5.00;;;;;;;;5069527;28;8816;-74
2023/07/21 08:33:37;;;;;;;;;7.75;6.75;;;;;;;;5070705;28;8811;-74
2023/07/21 08:36:02;;;;;;;;;7.00;6.75;;;;;;;;5069274;28;9009;-73
2023/07/21 08:38:27;;;;;;;;;5.00;5.00;;;;;;;;5070993;28;8887;-73
2023/07/21 08:41:03;;;;;;;;;6.75;6.00;;;;;;;;5069449;28;8844;-73
2023/07/21 08:43:29;;;;;;;;;6.50;6.00;;;;;;;;5070324;28;8761;-73
2023/07/21 08:45:57;;;;;;;;;6.50;6.50;;;;;;;;5070775;28;9836;-73
2023/07/21 08:48:23;;;;;;;;;5.75;5.75;;;;;;;;5070884;28;8788;-73
2023/07/21 08:50:48;;;;;;;;;8.50;6.50;;;;;;;;5070772;28;10167;-74
2023/07/21 08:53:13;;;;;;;;;5.50;5.50;;;;;;;;5070447;28;8931;-74
2023/07/21 08:55:39;;;;;;;;;4.50;4.50;;;;;;;;5070236;28;8879;-72
2023/07/21 08:58:04;;;;;;;;;10.00;7.25;;;;;;;;5070264;28;8797;-74
2023/07/21 09:00:31;;;;;;;;;4.50;4.25;;;;;;;;5070404;28;8928;-73
2023/07/21 09:03:00;;;;;;;;;7.75;5.50;;;;;;;;5070286;28;8797;-74
2023/07/21 09:05:25;;;;;;;;;6.50;5.25;;;;;;;;5071134;28;9720;-72
2023/07/21 09:07:51;;;;;;;;;5.25;5.25;;;;;;;;5073594;28;9713;-73
2023/07/21 09:10:36;;;;;;;;;6.75;4.75;;;;;;;;5073758;28;8893;-72
2023/07/21 09:13:02;;;;;;;;;6.50;6.00;;;;;;;;5072847;28;8808;-74
2023/07/21 09:15:27;;;;;;;;;4.00;4.00;;;;;;;;5073401;28;9840;-74
2023/07/21 09:17:52;;;;;;;;;7.50;6.50;;;;;;;;5073732;28;8877;-73
2023/07/21 09:20:20;;;;;;;;;6.00;6.00;;;;;;;;5073495;28;8824;-75
2023/07/21 09:22:48;;;;;;;;;5.50;4.50;;;;;;;;5073567;28;8789;-73
2023/07/21 09:25:20;;;;;;;;;4.00;4.00;;;;;;;;5073818;28;9845;-72
2023/07/21 09:27:53;;;;;;;;;2.25;2.25;;;;;;;;5073172;28;9740;-72
2023/07/21 09:30:19;;;;;;;;;4.75;3.75;;;;;;;;5073389;28;9583;-72
2023/07/21 09:32:44;;;;;;;;;3.00;3.00;;;;;;;;5071998;28;9577;-72
2023/07/21 09:35:10;;;;;;;;;3.75;3.75;;;;;;;;5072964;28;8843;-72
2023/07/21 09:37:35;;;;;;;;;5.00;4.00;;;;;;;;5073097;28;8797;-73
2023/07/21 09:40:03;;;;;;;;;5.00;4.50;;;;;;;;5073134;28;8804;-72
2023/07/21 09:42:29;;;;;;;;;4.00;4.00;;;;;;;;5072851;28;8839;-73
2023/07/21 09:44:56;;;;;;;;;3.25;3.00;;;;;;;;5073237;28;9654;-76
2023/07/21 09:47:22;;;;;;;;;3.25;3.25;;;;;;;;5072844;28;11444;-73
2023/07/21 09:49:48;;;;;;;;;4.00;3.25;;;;;;;;5072989;28;9711;-74
2023/07/21 09:52:15;;;;;;;;;4.50;4.50;;;;;;;;5072640;28;8824;-72
2023/07/21 09:54:43;;;;;;;;;2.00;1.00;;;;;;;;5073339;28;9709;-72
2023/07/21 09:57:10;;;;;;;;;3.00;3.00;;;;;;;;5073130;28;9541;-73
2023/07/21 09:59:37;;;;;;;;;4.25;2.00;;;;;;;;5072839;28;9721;-73
2023/07/21 10:02:05;;;;;;;;;4.00;2.00;;;;;;;;5072693;28;9887;-73
2023/07/21 10:04:31;;;;;;;;;2.00;2.00;;;;;;;;5072835;28;9680;-73
2023/07/21 10:06:58;;;;;;;;;2.50;2.50;;;;;;;;5072500;28;9767;-75
2023/07/21 10:09:24;;;;;;;;;4.50;3.00;;;;;;;;5072439;28;8780;-73
2023/07/21 10:11:49;;;;;;;;;2.00;2.00;;;;;;;;5072949;28;9823;-74
2023/07/21 10:14:30;;;;;;;;;2.00;2.00;;;;;;;;5072526;28;8808;-73
2023/07/21 10:16:55;;;;;;;;;1.75;1.75;;;;;;;;5072293;28;8812;-73
2023/07/21 10:19:22;;;;;;;;;4.50;2.25;;;;;;;;5072682;28;9714;-74
2023/07/21 10:21:48;;;;;;;;;2.00;2.00;;;;;;;;5072753;28;8850;-73
2023/07/21 10:24:23;;;;;;;;;1.00;1.00;;;;;;;;5072435;28;9885;-72
2023/07/21 10:26:52;;;;;;;;;1.50;1.50;;;;;;;;5072432;28;8776;-72
2023/07/21 10:29:17;;;;;;;;;3.00;3.00;;;;;;;;5054380;28;9994;-73
2023/07/21 10:31:53;;;;;;;;;1.00;1.00;;;;;;;;5070972;28;10110;-74
2023/07/21 10:34:23;;;;;;;;;3.00;2.75;;;;;;;;5072422;28;8797;-74
2023/07/21 10:36:48;;;;;;;;;2.00;2.00;;;;;;;;5072139;28;10660;-74
2023/07/21 10:39:20;;;;;;;;;1.50;1.50;;;;;;;;5072136;28;9653;-73
2023/07/21 10:41:46;;;;;;;;;3.00;1.50;;;;;;;;5072474;28;8807;-74
2023/07/21 10:44:12;;;;;;;;;2.75;2.00;;;;;;;;5072230;28;9857;-73
2023/07/21 10:46:55;;;;;;;;;1.00;1.00;;;;;;;;5072225;28;9794;-73
2023/07/21 10:49:20;;;;;;;;;1.50;1.50;;;;;;;;5072139;28;9603;-73
2023/07/21 10:51:49;;;;;;;;;3.00;2.00;;;;;;;;5071555;28;9735;-73
2023/07/21 10:54:15;;;;;;;;;2.00;2.00;;;;;;;;5071904;28;9573;-73
2023/07/21 10:56:43;;;;;;;;;2.00;2.00;;;;;;;;5071712;28;9910;-73
2023/07/21 10:59:09;;;;;;;;;3.50;2.50;;;;;;;;5072004;28;8784;-73
2023/07/21 11:01:38;;;;;;;;;2.00;2.00;;;;;;;;5071765;28;10004;-73
2023/07/21 11:04:04;;;;;;;;;1.50;1.00;;;;;;;;5071780;28;8780;-73
2023/07/21 11:06:29;;;;;;;;;2.75;1.50;;;;;;;;5071878;28;10151;-73
2023/07/21 11:08:54;;;;;;;;;1.00;1.00;;;;;;;;5071709;28;8870;-73
2023/07/21 11:11:20;;;;;;;;;1.00;1.00;;;;;;;;5071735;28;8870;-73
2023/07/21 11:13:46;;;;;;;;;1.50;1.50;;;;;;;;5071856;28;8803;-73
2023/07/21 11:16:11;;;;;;;;;2.75;2.75;;;;;;;;5071737;28;8808;-73
2023/07/21 11:18:39;;;;;;;;;1.25;1.25;;;;;;;;5070653;28;8789;-73
2023/07/21 11:21:05;;;;;;;;;1.00;1.00;;;;;;;;5072021;28;8781;-73
2023/07/21 11:23:31;;;;;;;;;1.00;1.00;;;;;;;;5070207;28;10034;-73
2023/07/21 11:26:11;;;;;;;;;2.25;2.25;;;;;;;;5070375;28;8807;-74
2023/07/21 11:28:41;;;;;;;;;1.25;1.25;;;;;;;;5071035;28;10175;-74
2023/07/21 11:31:11;;;;;;;;;1.75;1.75;;;;;;;;5071674;28;10775;-74
2023/07/21 11:33:44;;;;;;;;;3.00;2.00;;;;;;;;5071765;28;10578;-73
2023/07/21 11:36:10;;;;;;;;;2.00;2.00;;;;;;;;5071488;28;9973;-74
2023/07/21 11:38:36;;;;;;;;;1.00;1.00;;;;;;;;5070033;28;10786;-73
2023/07/21 11:41:03;;;;;;;;;1.50;1.50;;;;;;;;5071804;28;11532;-73
2023/07/21 11:43:28;;;;;;;;;1.00;1.00;;;;;;;;5070758;28;8918;-73
2023/07/21 11:45:54;;;;;;;;;1.00;1.00;;;;;;;;5071678;28;10082;-73
2023/07/21 11:48:20;;;;;;;;;0.75;0.75;;;;;;;;5071921;28;8819;-74
2023/07/21 11:50:52;;;;;;;;;1.00;1.00;;;;;;;;5071844;28;8866;-74
2023/07/21 11:53:18;;;;;;;;;1.25;1.25;;;;;;;;5072253;28;8769;-72
2023/07/21 11:55:44;;;;;;;;;2.00;2.00;;;;;;;;5072668;28;10701;-73
2023/07/21 11:58:11;;;;;;;;;2.50;1.25;;;;;;;;5071888;28;9587;-72
2023/07/21 12:00:36;;;;;;;;;1.50;1.50;;;;;;;;5072353;28;8761;-73
2023/07/21 12:03:01;;;;;;;;;2.00;1.00;;;;;;;;5072927;28;9891;-72
2023/07/21 12:05:27;;;;;;;;;1.75;1.75;;;;;;;;5070997;28;8793;-73
2023/07/21 12:07:52;;;;;;;;;1.75;1.00;;;;;;;;5071489;28;8803;-74
2023/07/21 12:10:18;;;;;;;;;3.75;2.00;;;;;;;;5069551;28;8820;-74
2023/07/21 12:12:43;;;;;;;;;1.50;1.50;;;;;;;;5070721;28;8780;-74
2023/07/21 12:15:11;;;;;;;;;4.00;3.00;;;;;;;;5070897;28;8818;-74
2023/07/21 12:17:37;;;;;;;;;4.00;3.00;;;;;;;;5070777;28;8788;-75
2023/07/21 12:20:04;;;;;;;;;2.25;2.00;;;;;;;;5070672;28;10046;-75
2023/07/21 12:22:29;;;;;;;;;2.50;2.50;;;;;;;;5069630;28;8799;-73
2023/07/21 12:24:54;;;;;;;;;2.75;2.75;;;;;;;;5068788;28;9995;-72
2023/07/21 12:27:19;;;;;;;;;2.25;1.00;;;;;;;;5068298;28;8809;-71
2023/07/21 12:29:45;;;;;;;;;2.00;2.00;;;;;;;;5069630;28;8879;-72
2023/07/21 12:32:10;;;;;;;;;2.00;2.00;;;;;;;;5069442;28;8805;-72
2023/07/21 12:34:35;;;;;;;;;2.00;2.00;;;;;;;;5069321;28;8796;-71
2023/07/21 12:37:00;;;;;;;;;3.00;3.00;;;;;;;;5069029;28;8901;-72
2023/07/21 12:39:26;;;;;;;;;1.75;1.75;;;;;;;;5072212;28;8891;-71
2023/07/21 12:41:51;;;;;;;;;1.25;1.25;;;;;;;;5074227;28;8819;-72
2023/07/21 12:44:16;;;;;;;;;2.75;2.75;;;;;;;;5072861;28;9333;-72
2023/07/21 12:46:41;;;;;;;;;2.00;2.00;;;;;;;;5073047;28;8804;-72
2023/07/21 12:49:07;;;;;;;;;1.50;1.50;;;;;;;;5073940;28;8772;-72
2023/07/21 12:51:32;;;;;;;;;3.00;3.00;;;;;;;;5073691;28;8816;-72
2023/07/21 12:53:57;;;;;;;;;3.00;2.00;;;;;;;;5074085;28;8792;-71
2023/07/21 12:56:22;;;;;;;;;5.50;3.00;;;;;;;;5072501;28;8931;-72
2023/07/21 12:58:48;;;;;;;;;1.00;1.00;;;;;;;;5072620;28;8800;-72
2023/07/21 13:01:13;;;;;;;;;2.00;2.00;;;;;;;;5073937;28;8800;-72
2023/07/21 13:03:38;;;;;;;;;2.00;2.00;;;;;;;;5073499;28;8948;-72
2023/07/21 13:06:03;;;;;;;;;3.00;3.00;;;;;;;;5072309;28;8917;-72
2023/07/21 13:08:28;;;;;;;;;2.00;2.00;;;;;;;;5073621;28;8793;-72
2023/07/21 13:10:54;;;;;;;;;0.75;0.75;;;;;;;;5073633;28;8777;-72
2023/07/21 13:13:19;;;;;;;;;2.00;2.00;;;;;;;;5072396;28;8812;-73
2023/07/21 13:15:44;;;;;;;;;1.00;1.00;;;;;;;;5072348;28;8833;-71
2023/07/21 13:18:09;;;;;;;;;4.00;2.00;;;;;;;;5055479;28;8824;-71
2023/07/21 13:20:35;;;;;;;;;3.00;3.00;;;;;;;;5073808;28;8882;-71
2023/07/21 13:23:00;;;;;;;;;1.25;1.25;;;;;;;;5073479;28;8768;-71
2023/07/21 13:25:25;;;;;;;;;2.25;2.25;;;;;;;;5073546;28;8815;-71
2023/07/21 13:27:51;;;;;;;;;3.75;3.75;;;;;;;;5055630;28;8800;-71
2023/07/21 13:30:16;;;;;;;;;3.00;3.00;;;;;;;;5072155;28;8808;-72
2023/07/21 13:32:41;;;;;;;;;2.50;2.50;;;;;;;;5073415;28;8823;-71
2023/07/21 13:35:07;;;;;;;;;1.25;1.25;;;;;;;;5073206;28;8910;-71
2023/07/21 13:37:32;;;;;;;;;2.00;2.00;;;;;;;;5071983;28;8811;-71
2023/07/21 13:39:57;;;;;;;;;3.00;2.00;;;;;;;;5073211;28;8891;-72
2023/07/21 13:42:23;;;;;;;;;2.00;2.00;;;;;;;;5072111;28;8804;-72
2023/07/21 13:44:48;;;;;;;;;2.75;2.75;;;;;;;;5073128;28;8804;-72
2023/07/21 13:47:14;;;;;;;;;1.00;1.00;;;;;;;;5072603;28;8792;-72
2023/07/21 13:49:40;;;;;;;;;1.00;1.00;;;;;;;;5072795;28;8769;-71
2023/07/21 13:52:06;;;;;;;;;1.25;1.25;;;;;;;;5072674;28;10576;-71
2023/07/21 13:54:31;;;;;;;;;2.25;2.25;;;;;;;;5071693;28;8824;-72
2023/07/21 13:56:57;;;;;;;;;2.25;2.25;;;;;;;;5073099;28;8816;-71
2023/07/21 13:59:22;;;;;;;;;1.50;1.50;;;;;;;;5072760;28;8811;-72
2023/07/21 14:01:48;;;;;;;;;3.00;3.00;;;;;;;;5072650;28;10127;-72
2023/07/21 14:04:13;;;;;;;;;2.00;2.00;;;;;;;;5072925;28;8804;-72
2023/07/21 14:06:39;;;;;;;;;1.00;1.00;;;;;;;;5071483;28;8826;-71
2023/07/21 14:09:07;;;;;;;;;2.00;2.00;;;;;;;;5072938;28;8808;-71
2023/07/21 14:11:33;;;;;;;;;3.00;3.00;;;;;;;;5073052;28;8782;-71
2023/07/21 14:13:59;;;;;;;;;2.00;2.00;;;;;;;;5072655;28;9685;-71
2023/07/21 14:16:25;;;;;;;;;2.25;2.25;;;;;;;;5072254;28;9952;-71
2023/07/21 14:18:51;;;;;;;;;2.00;2.00;;;;;;;;5072515;28;8866;-71
2023/07/21 14:21:16;;;;;;;;;2.00;2.00;;;;;;;;5072685;28;9725;-71
2023/07/21 14:23:41;;;;;;;;;3.50;2.50;;;;;;;;5072583;28;9553;-73
2023/07/21 14:26:07;;;;;;;;;3.00;3.00;;;;;;;;5071470;28;8804;-71
2023/07/21 14:28:32;;;;;;;;;2.25;2.25;;;;;;;;5072715;28;8897;-73
2023/07/21 14:30:57;;;;;;;;;3.25;3.25;;;;;;;;5072318;28;9584;-70
2023/07/21 14:33:23;;;;;;;;;2.75;2.75;;;;;;;;5072549;28;8796;-70
2023/07/21 14:35:48;;;;;;;;;3.00;2.50;;;;;;;;5072260;28;8877;-71
2023/07/21 14:38:15;;;;;;;;;2.00;2.00;;;;;;;;5072217;28;8792;-71
2023/07/21 14:40:40;;;;;;;;;2.00;2.00;;;;;;;;5071015;28;9623;-70
2023/07/21 14:43:05;;;;;;;;;6.00;4.00;;;;;;;;5071952;28;9859;-73
2023/07/21 14:45:32;;;;;;;;;2.75;2.75;;;;;;;;5071019;28;8819;-73
2023/07/21 14:47:59;;;;;;;;;2.50;2.50;;;;;;;;5070799;28;9618;-71